Time;durP1;ratioP1;P1;durP2;ratioP2;P2;SDS_P1;SDS_P2;PMS_P1;PMS_P2;Temp;Humidity;BMP_temperature;BMP_pressure;BME280_temperature;BME280_humidity;BME280_pressure;Samples;Min_cycle;Max_cycle;Signal;HPM_P1;HPM_P2
2021/06/06 00:01:41;;;;;;;79.88;71.18;;;18.20;90.90;;;;;;5052459;28;20664;-87
2021/06/06 00:04:17;;;;;;;82.78;74.00;;;18.20;90.90;;;;;;5053544;28;20171;-87
2021/06/06 00:06:43;;;;;;;86.93;77.50;;;18.20;90.60;;;;;;5052013;28;20179;-87
2021/06/06 00:09:14;;;;;;;87.05;74.60;;;18.00;90.60;;;;;;5053511;28;20734;-88
2021/06/06 00:11:46;;;;;;;84.13;74.88;;;18.00;90.70;;;;;;5052028;28;20183;-87
2021/06/06 00:14:23;;;;;;;81.38;72.82;;;18.00;90.30;;;;;;5052006;28;20175;-87
2021/06/06 00:16:52;;;;;;;80.45;71.68;;;18.00;90.20;;;;;;5052198;28;20182;-87
2021/06/06 00:19:19;;;;;;;80.20;69.75;;;18.00;89.90;;;;;;5051936;28;20241;-87
2021/06/06 00:21:46;;;;;;;77.32;68.95;;;18.00;89.80;;;;;;5053109;28;20550;-87
2021/06/06 00:24:14;;;;;;;73.55;65.85;;;18.00;89.40;;;;;;5053129;28;20625;-87
2021/06/06 00:26:40;;;;;;;75.60;67.20;;;18.10;89.30;;;;;;5053691;28;20164;-87
2021/06/06 00:29:05;;;;;;;79.05;70.15;;;18.00;89.20;;;;;;5056019;28;20245;-86
2021/06/06 00:31:31;;;;;;;77.03;68.53;;;18.00;89.20;;;;;;5055956;28;20632;-86
2021/06/06 00:33:57;;;;;;;74.70;66.53;;;17.90;89.10;;;;;;5055979;28;20178;-86
2021/06/06 00:36:23;;;;;;;74.78;65.85;;;17.90;89.00;;;;;;5055869;28;20187;-86
2021/06/06 00:38:49;;;;;;;74.32;66.32;;;17.90;88.90;;;;;;5055780;28;20675;-86
2021/06/06 00:41:18;;;;;;;80.22;71.60;;;17.90;88.90;;;;;;5055757;28;20651;-86
2021/06/06 00:43:44;;;;;;;80.55;71.43;;;17.70;89.60;;;;;;5055713;28;20184;-86
2021/06/06 00:46:11;;;;;;;90.40;75.97;;;17.60;89.90;;;;;;5055708;28;20225;-87
2021/06/06 00:48:37;;;;;;;87.38;75.95;;;17.50;90.30;;;;;;5056126;28;20672;-87
2021/06/06 00:51:20;;;;;;;89.97;74.97;;;17.40;90.70;;;;;;5055578;28;20225;-87
2021/06/06 00:53:56;;;;;;;87.00;75.03;;;17.60;90.60;;;;;;5055742;28;20548;-87
2021/06/06 00:56:24;;;;;;;99.20;82.10;;;17.40;90.60;;;;;;5057087;28;20156;-86
2021/06/06 00:58:53;;;;;;;87.88;77.60;;;17.50;90.60;;;;;;5055583;28;20694;-86
2021/06/06 01:01:21;;;;;;;91.28;74.93;;;17.40;90.70;;;;;;5056750;28;20187;-87
2021/06/06 01:03:49;;;;;;;92.50;76.00;;;17.40;90.90;;;;;;5056762;28;20172;-87
2021/06/06 01:06:37;;;;;;;95.82;79.78;;;17.30;90.80;;;;;;5056736;28;20539;-87
2021/06/06 01:09:05;;;;;;;86.50;76.35;;;17.30;90.80;;;;;;5056283;28;20215;-86
2021/06/06 01:11:58;;;;;;;83.53;72.05;;;17.40;90.60;;;;;;5055251;28;20172;-87
2021/06/06 01:14:57;;;;;;;73.22;65.30;;;17.50;90.50;;;;;;5055254;28;20640;-87
2021/06/06 01:17:31;;;;;;;74.30;63.70;;;17.50;89.90;;;;;;5055204;28;20204;-88
2021/06/06 01:19:59;;;;;;;76.03;67.65;;;17.60;89.60;;;;;;5056657;28;20196;-87
2021/06/06 01:22:50;;;;;;;83.60;71.25;;;17.50;89.30;;;;;;5055185;28;20176;-87
2021/06/06 01:25:23;;;;;;;77.05;66.55;;;17.50;89.40;;;;;;5055147;28;20180;-87
2021/06/06 01:28:12;;;;;;;78.43;69.82;;;17.50;89.00;;;;;;5055029;28;20679;-87
2021/06/06 01:30:45;;;;;;;81.57;72.25;;;17.30;89.00;;;;;;5055025;28;20628;-87
2021/06/06 01:33:27;;;;;;;82.85;73.80;;;17.20;89.00;;;;;;5056478;28;20184;-87
2021/06/06 01:36:01;;;;;;;80.78;70.45;;;17.20;89.10;;;;;;5054870;28;20176;-87
2021/06/06 01:38:45;;;;;;;79.85;68.00;;;17.20;89.20;;;;;;5054694;28;20287;-87
2021/06/06 01:41:16;;;;;;;82.63;70.65;;;17.20;89.20;;;;;;5054807;28;20238;-87
2021/06/06 01:43:48;;;;;;;83.68;72.40;;;16.90;89.30;;;;;;5054783;28;20198;-87
2021/06/06 01:46:42;;;;;;;83.88;73.05;;;16.80;89.50;;;;;;5054699;28;20258;-87
2021/06/06 01:49:10;;;;;;;83.55;71.65;;;16.70;89.80;;;;;;5052591;28;20616;-87
2021/06/06 01:51:46;;;;;;;89.45;75.60;;;16.70;89.80;;;;;;5055821;28;20255;-87
2021/06/06 01:54:15;;;;;;;84.65;74.80;;;16.80;89.80;;;;;;5056044;28;20254;-87
2021/06/06 01:56:48;;;;;;;87.40;74.50;;;16.80;89.50;;;;;;5055769;28;20176;-87
2021/06/06 01:59:27;;;;;;;82.00;72.43;;;16.80;89.60;;;;;;5054570;28;20659;-87
2021/06/06 02:01:54;;;;;;;86.50;71.03;;;16.70;89.90;;;;;;5055620;28;20168;-87
2021/06/06 02:04:21;;;;;;;83.60;72.05;;;16.80;89.80;;;;;;5055491;28;20663;-87
2021/06/06 02:06:52;;;;;;;85.07;73.80;;;16.70;89.60;;;;;;5054035;28;20202;-87
2021/06/06 02:09:22;;;;;;;85.32;73.47;;;16.60;89.80;;;;;;5054497;28;20183;-87
2021/06/06 02:11:54;;;;;;;87.97;74.25;;;16.70;89.90;;;;;;5055764;28;20241;-87
2021/06/06 02:14:30;;;;;;;88.38;71.28;;;16.70;89.80;;;;;;5054203;28;20206;-87
2021/06/06 02:16:59;;;;;;;85.95;69.13;;;16.70;89.70;;;;;;5053978;28;20175;-88
2021/06/06 02:19:28;;;;;;;75.70;65.43;;;16.70;89.60;;;;;;5054070;28;20263;-87
2021/06/06 02:21:57;;;;;;;75.30;65.10;;;16.80;89.50;;;;;;5054015;28;20276;-87
2021/06/06 02:24:24;;;;;;;86.25;68.35;;;16.80;89.40;;;;;;5054266;28;20259;-87
2021/06/06 02:26:59;;;;;;;77.32;67.30;;;16.70;89.40;;;;;;5053770;28;20178;-88
2021/06/06 02:29:41;;;;;;;82.75;69.68;;;16.70;89.40;;;;;;5054152;28;20175;-87
2021/06/06 02:32:15;;;;;;;83.03;67.40;;;16.70;89.50;;;;;;5055345;28;20168;-87
2021/06/06 02:34:52;;;;;;;79.60;66.30;;;16.70;89.70;;;;;;5055036;28;20620;-87
2021/06/06 02:37:26;;;;;;;80.20;66.00;;;16.70;89.70;;;;;;5053601;28;20250;-87
2021/06/06 02:39:58;;;;;;;75.03;63.90;;;16.60;89.70;;;;;;5054882;28;20171;-88
2021/06/06 02:42:32;;;;;;;79.75;66.13;;;16.60;90.00;;;;;;5053631;28;20325;-87
2021/06/06 02:45:06;;;;;;;71.75;63.30;;;16.60;89.90;;;;;;5054826;28;20210;-87
2021/06/06 02:47:37;;;;;;;80.18;66.05;;;16.60;89.90;;;;;;5054527;28;20567;-87
2021/06/06 02:50:11;;;;;;;74.20;64.22;;;16.50;90.10;;;;;;5053485;28;20168;-87
2021/06/06 02:53:15;;;;;;;73.45;62.25;;;16.60;90.10;;;;;;5053755;28;20229;-87
2021/06/06 02:55:45;;;;;;;67.47;58.70;;;16.70;90.00;;;;;;5053967;28;20206;-87
2021/06/06 02:58:16;;;;;;;67.13;59.47;;;16.70;89.80;;;;;;5053270;28;20223;-87
2021/06/06 03:00:46;;;;;;;71.72;60.30;;;16.70;89.70;;;;;;5054458;28;20243;-87
2021/06/06 03:03:32;;;;;;;75.00;62.22;;;16.70;89.70;;;;;;5054421;28;20168;-87
2021/06/06 03:06:02;;;;;;;74.30;62.33;;;16.60;89.80;;;;;;5053161;28;20179;-87
2021/06/06 03:08:28;;;;;;;69.38;59.13;;;16.60;89.90;;;;;;5053090;28;20216;-87
2021/06/06 03:10:55;;;;;;;65.53;58.42;;;16.70;89.80;;;;;;5054232;28;20164;-88
2021/06/06 03:13:24;;;;;;;67.10;59.17;;;16.70;89.50;;;;;;5053063;28;20172;-87
2021/06/06 03:15:55;;;;;;;65.05;57.80;;;16.70;89.40;;;;;;5054184;28;20175;-88
2021/06/06 03:18:22;;;;;;;63.75;56.45;;;16.70;89.40;;;;;;5054129;28;20198;-87
2021/06/06 03:20:51;;;;;;;67.93;57.75;;;16.70;89.30;;;;;;5052969;28;20203;-87
2021/06/06 03:23:22;;;;;;;63.65;54.83;;;16.70;89.20;;;;;;5052898;28;20183;-87
2021/06/06 03:26:01;;;;;;;64.10;56.95;;;16.80;89.10;;;;;;5054004;28;20218;-88
2021/06/06 03:28:29;;;;;;;68.05;59.95;;;16.80;89.00;;;;;;5052614;28;20212;-87
2021/06/06 03:31:01;;;;;;;68.53;60.50;;;16.70;89.20;;;;;;5052638;28;20551;-87
2021/06/06 03:33:44;;;;;;;71.93;60.25;;;16.60;89.50;;;;;;5052686;28;20167;-87
2021/06/06 03:36:11;;;;;;;75.35;63.33;;;16.60;89.70;;;;;;5054128;28;20182;-87
2021/06/06 03:38:37;;;;;;;70.45;58.83;;;16.40;90.20;;;;;;5053680;28;20547;-87
2021/06/06 03:41:03;;;;;;;73.97;63.17;;;16.60;90.20;;;;;;5053681;28;20198;-87
2021/06/06 03:43:29;;;;;;;77.13;63.88;;;16.50;90.20;;;;;;5052538;28;20180;-87
2021/06/06 03:45:54;;;;;;;80.07;63.88;;;16.30;90.30;;;;;;5053700;28;20176;-87
2021/06/06 03:48:20;;;;;;;84.15;65.40;;;16.30;90.60;;;;;;5053496;28;20691;-87
2021/06/06 03:50:51;;;;;;;80.32;66.43;;;16.30;90.70;;;;;;5053272;28;20202;-87
2021/06/06 03:53:21;;;;;;;83.63;67.32;;;16.30;90.70;;;;;;5052296;28;20190;-87
2021/06/06 03:55:47;;;;;;;84.93;67.00;;;16.30;90.60;;;;;;5052427;28;20175;-87
2021/06/06 03:58:14;;;;;;;81.93;65.30;;;16.40;90.70;;;;;;5052515;28;20596;-87
2021/06/06 04:00:43;;;;;;;76.97;64.57;;;16.30;90.70;;;;;;5053374;28;20237;-87
2021/06/06 04:03:10;;;;;;;78.78;64.55;;;16.40;90.60;;;;;;5051662;28;20176;-87
2021/06/06 04:05:36;;;;;;;78.90;65.18;;;16.50;90.50;;;;;;5053593;28;20659;-87
2021/06/06 04:08:04;;;;;;;80.07;63.78;;;16.40;90.40;;;;;;5053338;28;20212;-88
2021/06/06 04:10:29;;;;;;;75.40;61.47;;;16.50;90.20;;;;;;5053255;28;20689;-88
2021/06/06 04:12:55;;;;;;;80.45;65.53;;;16.50;90.20;;;;;;5052026;28;20184;-87
2021/06/06 04:15:21;;;;;;;84.55;67.13;;;16.50;90.30;;;;;;5053255;28;20247;-87
2021/06/06 04:17:47;;;;;;;70.85;62.13;;;16.50;90.30;;;;;;5053127;28;20287;-88
2021/06/06 04:20:13;;;;;;;71.70;61.97;;;16.50;90.20;;;;;;5052093;28;20245;-87
2021/06/06 04:22:39;;;;;;;77.72;62.20;;;16.50;90.10;;;;;;5052521;28;20203;-88
2021/06/06 04:25:07;;;;;;;78.65;65.97;;;16.50;89.80;;;;;;5051970;28;20214;-88
2021/06/06 04:27:32;;;;;;;81.38;66.38;;;16.50;90.20;;;;;;5052100;28;20208;-88
2021/06/06 04:29:59;;;;;;;82.20;65.43;;;16.50;90.30;;;;;;5053214;28;20247;-88
2021/06/06 04:32:25;;;;;;;81.88;65.88;;;16.50;90.30;;;;;;5053452;28;20214;-88
2021/06/06 04:34:51;;;;;;;82.85;63.20;;;16.50;90.30;;;;;;5051961;28;20172;-88
2021/06/06 04:37:18;;;;;;;71.78;60.47;;;16.50;90.30;;;;;;5051758;28;20195;-88
2021/06/06 04:39:44;;;;;;;73.72;59.25;;;16.60;90.20;;;;;;5051906;28;20183;-88
2021/06/06 04:42:10;;;;;;;75.55;60.45;;;16.60;90.00;;;;;;5051796;28;20549;-88
2021/06/06 04:44:37;;;;;;;69.95;58.28;;;16.60;89.70;;;;;;5051847;28;20187;-88
2021/06/06 04:47:10;;;;;;;66.90;56.25;;;16.60;89.70;;;;;;5051644;28;20317;-88
2021/06/06 04:49:37;;;;;;;73.47;59.17;;;16.60;89.70;;;;;;5051822;28;20172;-87
2021/06/06 04:52:04;;;;;;;74.13;60.33;;;16.60;89.60;;;;;;5053015;28;20168;-87
2021/06/06 04:54:30;;;;;;;78.22;61.15;;;16.60;89.80;;;;;;5052361;28;20173;-88
2021/06/06 04:56:56;;;;;;;73.05;58.65;;;16.60;89.90;;;;;;5051878;28;20182;-88
2021/06/06 04:59:21;;;;;;;66.63;56.45;;;16.60;89.90;;;;;;5051737;28;20683;-87
2021/06/06 05:01:47;;;;;;;75.60;57.50;;;16.60;89.80;;;;;;5051737;28;20172;-88
2021/06/06 05:04:13;;;;;;;78.88;60.08;;;16.60;89.80;;;;;;5051565;28;20643;-87
2021/06/06 05:06:38;;;;;;;70.20;57.05;;;16.50;89.70;;;;;;5052774;28;20168;-87
2021/06/06 05:09:05;;;;;;;70.35;53.55;;;16.50;89.80;;;;;;5051281;28;20687;-88
2021/06/06 05:11:31;;;;;;;65.20;54.35;;;16.50;89.70;;;;;;5051838;28;20176;-87
2021/06/06 05:13:56;;;;;;;73.32;58.08;;;16.50;89.60;;;;;;5054027;28;20183;-87
2021/06/06 05:16:22;;;;;;;66.13;54.15;;;16.60;89.60;;;;;;5056744;28;20168;-88
2021/06/06 05:18:48;;;;;;;65.90;54.60;;;16.50;89.70;;;;;;5055449;28;20223;-88
2021/06/06 05:21:13;;;;;;;65.15;51.72;;;16.60;89.90;;;;;;5056356;28;20176;-88
2021/06/06 05:23:39;;;;;;;65.28;52.22;;;16.50;89.90;;;;;;5055161;28;20183;-87
2021/06/06 05:26:05;;;;;;;67.45;55.53;;;16.60;90.00;;;;;;5055742;28;20222;-88
2021/06/06 05:28:33;;;;;;;65.00;53.13;;;16.50;90.30;;;;;;5054892;28;20261;-87
2021/06/06 05:30:59;;;;;;;69.30;54.90;;;16.50;90.40;;;;;;5056231;28;20559;-87
2021/06/06 05:33:26;;;;;;;71.32;55.05;;;16.40;90.70;;;;;;5055062;28;20547;-87
2021/06/06 05:35:53;;;;;;;73.38;56.45;;;16.50;90.90;;;;;;5054906;28;20175;-87
2021/06/06 05:38:21;;;;;;;70.72;56.28;;;16.50;90.90;;;;;;5054751;28;20257;-87
2021/06/06 05:40:47;;;;;;;79.82;57.00;;;16.30;91.30;;;;;;5055990;28;20255;-88
2021/06/06 05:43:13;;;;;;;71.40;54.33;;;16.30;91.60;;;;;;5056037;28;20215;-87
2021/06/06 05:45:39;;;;;;;78.63;58.33;;;16.40;91.70;;;;;;5055936;28;20176;-88
2021/06/06 05:48:06;;;;;;;70.97;54.30;;;16.40;91.60;;;;;;5054874;28;20218;-87
2021/06/06 05:50:36;;;;;;;77.85;57.58;;;16.50;91.50;;;;;;5054631;28;20172;-88
2021/06/06 05:53:03;;;;;;;77.32;58.45;;;16.50;91.40;;;;;;5054702;28;20175;-87
2021/06/06 05:55:29;;;;;;;71.53;55.15;;;16.60;91.50;;;;;;5054530;28;20179;-88
2021/06/06 05:57:54;;;;;;;74.25;56.00;;;16.50;91.30;;;;;;5054446;28;20200;-87
2021/06/06 06:00:25;;;;;;;69.20;54.17;;;16.50;91.20;;;;;;5054451;28;20205;-87
2021/06/06 06:02:51;;;;;;;70.45;54.65;;;16.60;91.10;;;;;;5054373;28;20172;-88
2021/06/06 06:05:17;;;;;;;72.18;54.25;;;16.60;91.20;;;;;;5055569;28;20204;-87
2021/06/06 06:07:43;;;;;;;71.80;54.70;;;16.60;91.10;;;;;;5055681;28;20557;-88
2021/06/06 06:10:11;;;;;;;71.15;54.42;;;16.60;91.20;;;;;;5055192;28;20182;-88
2021/06/06 06:12:37;;;;;;;70.53;52.42;;;16.60;91.30;;;;;;5054592;28;20203;-88
2021/06/06 06:15:07;;;;;;;74.10;55.13;;;16.60;91.40;;;;;;5055701;28;20168;-88
2021/06/06 06:17:33;;;;;;;72.97;55.03;;;16.60;91.50;;;;;;5054125;28;20615;-88
2021/06/06 06:19:59;;;;;;;69.32;52.25;;;16.70;91.50;;;;;;5054085;28;20773;-88
2021/06/06 06:22:24;;;;;;;65.07;50.25;;;16.70;91.40;;;;;;5054146;28;20202;-87
2021/06/06 06:24:50;;;;;;;69.00;52.03;;;16.80;91.30;;;;;;5053949;28;20280;-88
2021/06/06 06:27:16;;;;;;;65.63;50.90;;;16.80;91.10;;;;;;5053877;28;20687;-88
2021/06/06 06:29:41;;;;;;;66.35;49.88;;;16.90;91.00;;;;;;5053822;28;20636;-87
2021/06/06 06:32:07;;;;;;;64.25;48.60;;;16.90;90.90;;;;;;5053825;28;20176;-87
2021/06/06 06:34:33;;;;;;;65.32;50.58;;;17.00;90.90;;;;;;5053918;28;20593;-87
2021/06/06 06:36:59;;;;;;;59.13;47.17;;;17.00;90.80;;;;;;5053658;28;20183;-88
2021/06/06 06:39:25;;;;;;;56.30;47.00;;;17.00;90.60;;;;;;5053723;28;20287;-88
2021/06/06 06:41:51;;;;;;;58.90;46.25;;;17.10;90.60;;;;;;5053954;28;20183;-87
2021/06/06 06:44:16;;;;;;;52.92;41.45;;;17.00;90.10;;;;;;5053637;28;20172;-87
2021/06/06 06:46:42;;;;;;;56.00;44.28;;;17.00;90.00;;;;;;5054754;28;20176;-88
2021/06/06 06:49:08;;;;;;;59.78;45.45;;;17.10;90.20;;;;;;5054608;28;20203;-87
2021/06/06 06:51:34;;;;;;;57.17;42.83;;;17.10;90.40;;;;;;5053391;28;20184;-87
2021/06/06 06:54:00;;;;;;;60.03;43.17;;;17.20;90.40;;;;;;5053410;28;20179;-87
2021/06/06 06:56:27;;;;;;;52.25;40.75;;;17.20;90.10;;;;;;5053328;28;20182;-87
2021/06/06 06:58:54;;;;;;;45.83;39.95;;;17.30;89.90;;;;;;5053297;28;20282;-87
2021/06/06 07:01:21;;;;;;;46.88;39.10;;;17.20;89.50;;;;;;5054750;28;20172;-88
2021/06/06 07:03:46;;;;;;;46.80;38.28;;;17.20;89.60;;;;;;5053206;28;20184;-87
2021/06/06 07:06:14;;;;;;;45.08;37.05;;;17.30;89.40;;;;;;5053524;28;20238;-87
2021/06/06 07:08:42;;;;;;;44.40;37.05;;;17.20;89.00;;;;;;5054795;28;20216;-87
2021/06/06 07:11:11;;;;;;;43.88;37.45;;;17.20;89.20;;;;;;5053154;28;20168;-87
2021/06/06 07:13:37;;;;;;;43.95;36.97;;;17.30;89.40;;;;;;5052961;28;20176;-87
2021/06/06 07:16:05;;;;;;;38.00;33.90;;;17.30;89.10;;;;;;5053030;28;20172;-88
2021/06/06 07:18:31;;;;;;;38.63;34.47;;;17.30;89.00;;;;;;5054401;28;20278;-87
2021/06/06 07:21:00;;;;;;;40.35;35.17;;;17.30;88.60;;;;;;5054179;28;20263;-87
2021/06/06 07:23:28;;;;;;;42.33;34.83;;;17.30;88.80;;;;;;5054029;28;20175;-87
2021/06/06 07:25:56;;;;;;;38.30;34.15;;;17.30;88.60;;;;;;5052876;28;20172;-87
2021/06/06 07:28:24;;;;;;;41.20;35.15;;;17.30;88.60;;;;;;5052663;28;20675;-86
2021/06/06 07:30:54;;;;;;;39.92;34.47;;;17.30;88.80;;;;;;5054034;28;20180;-86
2021/06/06 07:33:24;;;;;;;43.88;35.63;;;17.30;88.90;;;;;;5053871;28;20245;-86
2021/06/06 07:35:52;;;;;;;38.17;33.95;;;17.40;88.40;;;;;;5052572;28;20650;-87
2021/06/06 07:38:18;;;;;;;40.22;35.22;;;17.50;88.70;;;;;;5054040;28;20192;-87
2021/06/06 07:40:44;;;;;;;40.20;33.35;;;17.50;88.70;;;;;;5052554;28;20175;-87
2021/06/06 07:43:11;;;;;;;37.05;33.05;;;17.50;88.90;;;;;;5053703;28;20180;-86
2021/06/06 07:45:37;;;;;;;36.55;32.28;;;17.40;88.30;;;;;;5052479;28;20180;-86
2021/06/06 07:48:04;;;;;;;42.00;34.60;;;17.50;88.50;;;;;;5053536;28;20210;-87
2021/06/06 07:50:32;;;;;;;37.70;33.58;;;17.50;88.90;;;;;;5053597;28;20164;-86
2021/06/06 07:52:58;;;;;;;37.13;31.25;;;17.70;88.70;;;;;;5052353;28;20632;-86
2021/06/06 07:55:26;;;;;;;37.85;32.83;;;17.70;88.40;;;;;;5053465;28;20278;-87
2021/06/06 07:57:52;;;;;;;34.75;31.08;;;17.80;88.30;;;;;;5052237;28;20200;-87
2021/06/06 08:00:22;;;;;;;33.33;29.45;;;17.80;88.20;;;;;;5052200;28;20183;-86
2021/06/06 08:02:47;;;;;;;34.65;30.67;;;17.80;87.00;;;;;;5053324;28;20255;-86
2021/06/06 08:05:15;;;;;;;37.05;32.20;;;17.70;87.20;;;;;;5052215;28;20703;-87
2021/06/06 08:07:41;;;;;;;35.50;31.08;;;17.70;87.50;;;;;;5051992;28;20294;-87
2021/06/06 08:10:10;;;;;;;33.03;29.58;;;17.70;87.80;;;;;;5053541;28;20195;-87
2021/06/06 08:12:35;;;;;;;34.53;30.92;;;17.80;87.90;;;;;;5052912;28;20176;-86
2021/06/06 08:15:02;;;;;;;33.50;30.05;;;17.90;87.90;;;;;;5052305;28;20594;-86
2021/06/06 08:17:27;;;;;;;33.15;29.67;;;17.90;87.20;;;;;;5051931;28;20200;-86
2021/06/06 08:19:53;;;;;;;34.00;30.13;;;18.00;87.30;;;;;;5051981;28;20667;-86
2021/06/06 08:22:19;;;;;;;33.85;30.45;;;18.10;87.10;;;;;;5051949;28;20532;-86
2021/06/06 08:24:45;;;;;;;34.33;30.60;;;18.20;87.00;;;;;;5053169;28;20183;-87
2021/06/06 08:27:11;;;;;;;33.60;29.33;;;18.30;87.00;;;;;;5051732;28;20199;-86
2021/06/06 08:29:39;;;;;;;34.90;29.27;;;18.40;86.70;;;;;;5053140;28;20168;-86
2021/06/06 08:32:05;;;;;;;35.03;27.55;;;18.40;85.50;;;;;;5052149;28;20206;-86
2021/06/06 08:34:31;;;;;;;37.60;29.08;;;18.50;86.20;;;;;;5051428;28;20200;-85
2021/06/06 08:36:58;;;;;;;31.02;27.75;;;18.60;85.90;;;;;;5053256;28;20164;-87
2021/06/06 08:39:27;;;;;;;33.60;26.92;;;18.70;85.60;;;;;;5052338;28;20523;-86
2021/06/06 08:41:58;;;;;;;32.40;26.98;;;18.60;84.60;;;;;;5052965;28;20168;-86
2021/06/06 08:44:52;;;;;;;31.55;28.23;;;18.70;84.50;;;;;;5051750;28;20694;-86
2021/06/06 08:47:23;;;;;;;32.80;29.48;;;18.70;84.50;;;;;;5021725;28;20687;-86
2021/06/06 08:49:52;;;;;;;33.45;28.35;;;18.70;85.20;;;;;;5057281;28;20153;-86
2021/06/06 08:52:37;;;;;;;31.63;28.33;;;18.80;84.60;;;;;;5057130;28;20164;-86
2021/06/06 08:55:35;;;;;;;33.45;27.80;;;18.90;84.00;;;;;;5055689;28;20543;-87
2021/06/06 08:58:08;;;;;;;28.60;25.55;;;18.90;83.10;;;;;;5031228;28;20200;-87
2021/06/06 09:00:37;;;;;;;33.78;27.45;;;19.00;83.40;;;;;;5055546;28;20614;-87
2021/06/06 09:03:09;;;;;;;32.75;27.20;;;19.00;82.00;;;;;;5056616;28;20180;-86
2021/06/06 09:05:39;;;;;;;30.80;27.58;;;19.00;82.50;;;;;;5055416;28;20682;-86
2021/06/06 09:08:10;;;;;;;31.20;26.92;;;19.00;82.10;;;;;;5055402;28;20261;-87
2021/06/06 09:10:40;;;;;;;30.52;26.08;;;19.00;82.60;;;;;;5055322;28;20172;-86
2021/06/06 09:13:08;;;;;;;33.20;29.52;;;19.10;82.70;;;;;;5057059;28;20516;-86
2021/06/06 09:15:35;;;;;;;32.05;27.55;;;19.10;82.70;;;;;;5055279;28;20191;-86
2021/06/06 09:18:17;;;;;;;31.52;26.75;;;19.20;82.50;;;;;;5054964;28;20286;-86
2021/06/06 09:20:44;;;;;;;30.27;25.75;;;19.20;82.20;;;;;;5056664;28;20164;-86
2021/06/06 09:23:15;;;;;;;34.55;28.02;;;19.30;81.60;;;;;;5055006;28;20172;-86
2021/06/06 09:25:46;;;;;;;37.47;28.75;;;19.30;81.60;;;;;;5055113;28;20548;-87
2021/06/06 09:28:20;;;;;;;33.65;28.38;;;19.30;81.30;;;;;;5056362;28;20254;-86
2021/06/06 09:31:00;;;;;;;32.75;28.63;;;19.10;81.40;;;;;;5054916;28;20172;-86
2021/06/06 09:33:31;;;;;;;32.60;28.63;;;18.90;81.90;;;;;;5054849;28;20537;-85
2021/06/06 09:36:00;;;;;;;34.88;28.17;;;19.10;82.30;;;;;;5056024;28;20157;-85
2021/06/06 09:38:31;;;;;;;31.95;27.45;;;18.90;81.80;;;;;;5055886;28;20206;-86
2021/06/06 09:41:18;;;;;;;30.38;27.00;;;18.90;82.10;;;;;;5054688;28;20176;-86
2021/06/06 09:44:16;;;;;;;30.95;26.27;;;19.00;82.10;;;;;;5054738;28;20549;-86
2021/06/06 09:46:48;;;;;;;31.42;27.23;;;19.30;82.20;;;;;;5056122;28;20164;-87
2021/06/06 09:49:34;;;;;;;31.02;26.10;;;19.40;81.70;;;;;;5054383;28;20200;-87
2021/06/06 09:52:17;;;;;;;33.17;27.10;;;19.50;81.30;;;;;;5054293;28;20193;-87
2021/06/06 09:54:46;;;;;;;30.45;27.15;;;19.30;81.40;;;;;;5054509;28;20179;-86
2021/06/06 09:57:39;;;;;;;33.70;27.85;;;19.50;80.80;;;;;;5055586;28;20220;-86
2021/06/06 10:02:38;;;;;;;31.02;27.30;;;19.50;80.90;;;;;;5144321;22;20239;-85
2021/06/06 10:05:11;;;;;;;28.65;25.33;;;19.50;80.60;;;;;;5054287;28;20175;-86
2021/06/06 10:07:40;;;;;;;30.90;27.73;;;19.70;80.80;;;;;;5055466;28;20210;-85
2021/06/06 10:10:16;;;;;;;33.80;27.10;;;19.20;80.60;;;;;;5054193;28;20675;-85
2021/06/06 10:12:45;;;;;;;33.00;27.13;;;19.40;82.40;;;;;;5034222;28;20188;-85
2021/06/06 10:15:55;;;;;;;32.92;26.70;;;19.70;81.40;;;;;;5035618;28;20200;-85
2021/06/06 10:18:40;;;;;;;31.92;26.77;;;19.80;81.20;;;;;;5034126;28;20700;-86
2021/06/06 10:21:19;;;;;;;32.15;27.77;;;19.80;81.00;;;;;;5033984;28;20291;-85
2021/06/06 10:23:47;;;;;;;31.63;26.27;;;19.90;80.00;;;;;;5035249;28;20180;-87
2021/06/06 10:26:18;;;;;;;31.27;27.10;;;19.60;79.50;;;;;;5033958;28;20183;-87
2021/06/06 10:29:02;;;;;;;35.92;30.35;;;19.30;81.20;;;;;;5035262;28;20625;-87
2021/06/06 10:31:44;;;;;;;35.40;29.10;;;19.30;82.20;;;;;;5034363;28;20188;-87
2021/06/06 10:34:31;;;;;;;35.03;29.73;;;19.40;82.60;;;;;;5034101;28;20176;-87
2021/06/06 10:36:57;;;;;;;37.05;28.50;;;19.60;81.50;;;;;;5035598;28;20163;-88
2021/06/06 10:39:27;;;;;;;32.25;28.77;;;19.80;81.10;;;;;;5035066;28;20561;-88
2021/06/06 10:42:13;;;;;;;35.05;29.25;;;19.70;80.90;;;;;;5033751;28;20253;-87
2021/06/06 10:44:44;;;;;;;35.40;29.48;;;19.50;80.70;;;;;;5034949;28;20287;-87
2021/06/06 10:47:40;;;;;;;37.53;30.33;;;19.50;81.00;;;;;;5034771;28;20655;-88
2021/06/06 10:50:24;;;;;;;33.00;29.33;;;19.30;81.50;;;;;;5020434;28;20189;-88
2021/06/06 10:52:52;;;;;;;40.72;32.03;;;19.10;81.50;;;;;;5033653;28;20168;-87
2021/06/06 10:55:30;;;;;;;39.05;33.40;;;18.90;82.90;;;;;;5034751;28;20590;-87
2021/06/06 10:58:08;;;;;;;42.63;34.92;;;19.00;83.90;;;;;;5033594;28;20271;-88
2021/06/06 11:00:39;;;;;;;42.53;35.15;;;18.90;83.70;;;;;;5034447;28;20200;-88
2021/06/06 11:03:08;;;;;;;45.83;36.50;;;18.80;83.30;;;;;;5034996;28;20192;-88
2021/06/06 11:05:44;;;;;;;50.72;37.03;;;18.80;84.10;;;;;;5034497;28;20256;-88
2021/06/06 11:08:29;;;;;;;43.30;34.60;;;18.90;83.40;;;;;;5033241;28;20725;-87
2021/06/06 11:11:10;;;;;;;46.30;34.95;;;19.20;83.70;;;;;;5034243;28;20664;-87
2021/06/06 11:13:43;;;;;;;42.55;34.05;;;19.40;82.90;;;;;;5033550;28;20230;-87
2021/06/06 11:16:18;;;;;;;44.70;35.25;;;19.20;82.50;;;;;;5033100;28;20550;-87
2021/06/06 11:18:54;;;;;;;43.60;34.45;;;19.50;82.40;;;;;;5033062;28;20648;-87
2021/06/06 11:21:40;;;;;;;38.08;33.88;;;19.50;82.50;;;;;;5034242;28;20192;-87
2021/06/06 11:24:26;;;;;;;41.63;35.30;;;19.40;82.60;;;;;;5034641;28;20172;-87
2021/06/06 11:26:58;;;;;;;48.58;35.10;;;19.00;83.10;;;;;;5033827;28;20196;-88
2021/06/06 11:29:26;;;;;;;43.30;35.67;;;19.10;83.50;;;;;;5032795;28;20205;-88
2021/06/06 11:32:10;;;;;;;42.92;34.72;;;19.00;83.70;;;;;;5033953;28;20771;-88
2021/06/06 11:34:38;;;;;;;43.97;36.38;;;18.90;83.40;;;;;;5033645;28;20169;-88
2021/06/06 11:37:12;;;;;;;46.20;36.15;;;18.80;84.20;;;;;;5032769;28;20172;-88
2021/06/06 11:39:48;;;;;;;52.40;37.28;;;18.80;84.30;;;;;;5032821;28;20604;-88
2021/06/06 11:42:36;;;;;;;45.70;37.38;;;18.70;84.00;;;;;;5032615;28;20319;-88
2021/06/06 11:45:23;;;;;;;45.45;36.83;;;18.80;84.20;;;;;;5033857;28;20150;-88
2021/06/06 11:47:53;;;;;;;47.75;37.50;;;18.90;84.20;;;;;;5032482;28;20203;-88
2021/06/06 11:50:29;;;;;;;45.10;37.03;;;18.80;84.60;;;;;;5032529;28;20183;-88
2021/06/06 11:53:17;;;;;;;48.72;36.72;;;19.00;84.60;;;;;;5016079;28;20203;-88
2021/06/06 11:55:50;;;;;;;45.28;36.45;;;19.00;83.70;;;;;;5032460;28;20175;-88
2021/06/06 11:58:35;;;;;;;46.63;35.88;;;19.20;83.40;;;;;;5034011;28;20583;-89
2021/06/06 12:01:23;;;;;;;49.55;36.72;;;19.30;82.60;;;;;;5032763;28;20235;-88
2021/06/06 12:04:05;;;;;;;44.38;35.75;;;19.10;83.00;;;;;;5032488;28;20326;-88
2021/06/06 12:06:30;;;;;;;50.72;38.35;;;18.80;83.30;;;;;;5032401;28;20176;-88
2021/06/06 12:09:13;;;;;;;49.67;38.45;;;18.70;84.20;;;;;;5032505;28;20208;-88
2021/06/06 12:11:41;;;;;;;49.10;37.83;;;18.70;84.50;;;;;;5033497;28;20672;-88
2021/06/06 12:14:28;;;;;;;42.28;34.30;;;18.70;84.10;;;;;;5033567;28;20665;-88
2021/06/06 12:17:06;;;;;;;46.60;36.60;;;19.00;84.00;;;;;;5032460;28;20644;-88
2021/06/06 12:19:40;;;;;;;49.63;37.50;;;19.00;83.10;;;;;;5032503;28;20550;-88
2021/06/06 12:22:13;;;;;;;47.53;36.28;;;18.70;84.40;;;;;;5031568;28;20200;-88
2021/06/06 12:24:39;;;;;;;53.08;38.33;;;18.90;84.10;;;;;;5032058;28;20231;-88
2021/06/06 12:27:19;;;;;;;49.60;38.63;;;18.80;83.50;;;;;;5033289;28;20176;-87
2021/06/06 12:29:50;;;;;;;53.47;38.25;;;18.60;84.20;;;;;;5033362;28;20192;-88
2021/06/06 12:32:23;;;;;;;53.38;38.67;;;18.70;84.60;;;;;;5033223;28;20211;-87
2021/06/06 12:34:50;;;;;;;50.75;37.47;;;18.70;84.60;;;;;;5032144;28;20212;-87
2021/06/06 12:37:21;;;;;;;51.97;39.08;;;18.70;84.50;;;;;;5031974;28;20173;-87
2021/06/06 12:39:50;;;;;;;48.55;37.67;;;18.70;85.00;;;;;;5031870;28;20177;-87
2021/06/06 12:42:16;;;;;;;63.13;40.78;;;18.70;84.40;;;;;;5033517;28;20190;-87
2021/06/06 12:44:48;;;;;;;61.60;40.97;;;18.80;84.30;;;;;;5034110;28;20208;-86
2021/06/06 12:47:29;;;;;;;57.17;41.03;;;18.60;84.70;;;;;;5033289;28;20267;-87
2021/06/06 12:50:00;;;;;;;59.90;41.60;;;18.60;85.10;;;;;;5032970;28;20176;-87
2021/06/06 12:52:32;;;;;;;62.30;41.85;;;18.50;85.10;;;;;;5032851;28;20193;-87